createdAt,value
2022-09-21T00:01:22.294Z,10.10
2022-09-21T00:03:56.740Z,9.85
2022-09-21T00:08:53.045Z,8.85
2022-09-21T00:11:26.303Z,9.73
2022-09-21T00:14:00.941Z,8.25
2022-09-21T00:16:29.058Z,10.07
2022-09-21T00:18:56.153Z,9.48
2022-09-21T00:21:23.964Z,8.75
2022-09-21T00:23:51.037Z,9.13
2022-09-21T00:26:24.161Z,9.20
2022-09-21T00:28:59.512Z,11.05
2022-09-21T00:31:27.927Z,7.45
2022-09-21T00:33:55.139Z,8.95
2022-09-21T00:36:25.197Z,10.52
2022-09-21T00:38:55.545Z,10.13
2022-09-21T00:41:23.317Z,8.45
2022-09-21T00:44:22.443Z,8.45
2022-09-21T00:46:51.887Z,8.63
2022-09-21T00:49:20.031Z,9.30
2022-09-21T00:51:48.207Z,7.65
2022-09-21T00:54:23.307Z,8.80
2022-09-21T00:56:50.661Z,10.07
2022-09-21T00:59:21.545Z,8.70
2022-09-21T01:01:49.774Z,6.53
2022-09-21T01:04:18.976Z,11.10
2022-09-21T01:06:48.029Z,8.65
2022-09-21T01:09:16.492Z,9.77
2022-09-21T01:12:06.467Z,8.32
2022-09-21T01:15:04.699Z,5.55
2022-09-21T01:17:53.845Z,8.40
2022-09-21T01:20:53.672Z,8.30
2022-09-21T01:23:54.434Z,5.88
2022-09-21T01:26:43.442Z,11.40
2022-09-21T01:29:27.686Z,10.90
2022-09-21T01:32:22.940Z,6.25
2022-09-21T01:35:10.239Z,5.20
2022-09-21T01:38:27.138Z,5.60
2022-09-21T01:41:03.204Z,7.30
2022-09-21T01:43:42.378Z,6.82
2022-09-21T01:46:16.076Z,10.48
2022-09-21T01:48:47.111Z,5.90
2022-09-21T01:51:17.092Z,8.80
2022-09-21T01:53:52.192Z,6.28
2022-09-21T01:56:46.723Z,7.65
2022-09-21T01:59:13.800Z,6.13
2022-09-21T02:01:50.410Z,7.75
2022-09-21T02:04:18.510Z,6.82
2022-09-21T02:06:48.663Z,9.63
2022-09-21T02:09:16.076Z,10.45
2022-09-21T02:11:44.038Z,7.50
2022-09-21T02:14:18.431Z,8.27
2022-09-21T02:17:08.133Z,9.27
2022-09-21T02:19:47.426Z,8.23
2022-09-21T02:22:21.072Z,6.97
2022-09-21T02:24:53.740Z,9.65
2022-09-21T02:27:35.215Z,7.50
2022-09-21T02:30:22.554Z,8.68
2022-09-21T02:32:59.207Z,7.47
2022-09-21T02:35:56.175Z,7.28
2022-09-21T02:38:35.232Z,9.63
2022-09-21T02:41:10.206Z,9.85
2022-09-21T02:44:01.104Z,6.97
2022-09-21T02:46:36.186Z,11.32
2022-09-21T02:49:10.749Z,8.18
2022-09-21T02:51:43.238Z,7.05
2022-09-21T02:54:13.932Z,6.18
2022-09-21T02:56:42.672Z,10.02
2022-09-21T02:59:10.981Z,6.78
2022-09-21T03:01:40.249Z,6.85
2022-09-21T03:04:07.384Z,6.47
2022-09-21T03:06:34.772Z,11.15
2022-09-21T03:09:03.227Z,5.80
2022-09-21T03:11:30.421Z,5.28
2022-09-21T03:13:57.584Z,10.43
2022-09-21T03:16:25.658Z,7.10
2022-09-21T03:18:52.898Z,8.82
2022-09-21T03:21:20.041Z,8.52
2022-09-21T03:23:47.048Z,5.97
2022-09-21T03:26:14.328Z,10.32
2022-09-21T03:28:41.349Z,9.73
2022-09-21T03:31:08.595Z,6.05
2022-09-21T03:33:35.704Z,7.65
2022-09-21T03:36:02.983Z,7.53
2022-09-21T03:38:30.026Z,8.48
2022-09-21T03:40:58.136Z,11.95
2022-09-21T03:43:25.504Z,9.05
2022-09-21T03:45:53.029Z,9.52
2022-09-21T03:48:20.168Z,7.60
2022-09-21T03:50:47.202Z,7.85
2022-09-21T03:53:14.351Z,12.48
2022-09-21T03:55:41.931Z,10.98
2022-09-21T03:58:09.368Z,9.15
2022-09-21T04:00:37.621Z,11.63
2022-09-21T04:03:05.474Z,13.63
2022-09-21T04:05:32.634Z,11.43
2022-09-21T04:08:02.237Z,13.00
2022-09-21T04:10:32.930Z,16.23
2022-09-21T04:13:03.561Z,10.85
2022-09-21T04:15:31.516Z,10.50
2022-09-21T04:17:59.337Z,12.95
2022-09-21T04:20:26.699Z,10.70
2022-09-21T04:22:53.778Z,12.70
2022-09-21T04:25:21.009Z,11.65
2022-09-21T04:27:48.105Z,12.35
2022-09-21T04:30:16.738Z,11.13
2022-09-21T04:32:44.605Z,15.10
2022-09-21T04:35:11.785Z,12.50
2022-09-21T04:37:39.075Z,12.48
2022-09-21T04:40:07.628Z,10.88
2022-09-21T04:42:34.858Z,14.13
2022-09-21T04:45:01.925Z,11.38
2022-09-21T04:47:32.132Z,12.57
2022-09-21T04:49:59.244Z,15.43
2022-09-21T04:52:26.632Z,14.10
2022-09-21T04:54:53.688Z,13.23
2022-09-21T04:57:20.843Z,12.93
2022-09-21T04:59:47.854Z,13.65
2022-09-21T05:02:14.889Z,17.40
2022-09-21T05:04:41.993Z,13.63
2022-09-21T05:07:09.041Z,15.88
2022-09-21T05:09:54.334Z,11.27
2022-09-21T05:12:21.402Z,13.40
2022-09-21T05:14:48.479Z,14.38
2022-09-21T05:17:15.517Z,14.88
2022-09-21T05:19:42.618Z,12.80
2022-09-21T05:22:09.767Z,15.05
2022-09-21T05:24:36.774Z,17.88
2022-09-21T05:27:03.938Z,12.45
2022-09-21T05:29:31.371Z,13.43
2022-09-21T05:32:06.781Z,13.98
2022-09-21T05:35:02.482Z,14.45
2022-09-21T05:38:06.348Z,17.05
2022-09-21T05:40:34.294Z,12.68
2022-09-21T05:43:01.561Z,16.67
2022-09-21T05:45:31.938Z,16.63
2022-09-21T05:48:23.579Z,16.98
2022-09-21T05:50:50.913Z,15.75
2022-09-21T05:53:28.150Z,16.02
2022-09-21T05:56:03.200Z,16.65
2022-09-21T05:58:33.361Z,14.25
2022-09-21T06:01:07.163Z,17.73
2022-09-21T06:03:36.306Z,12.30
2022-09-21T06:06:03.950Z,16.58
2022-09-21T06:08:31.101Z,13.13
2022-09-21T06:10:58.239Z,14.75
2022-09-21T06:13:27.037Z,14.18
2022-09-21T06:15:54.134Z,16.38
2022-09-21T06:18:21.249Z,16.27
2022-09-21T06:20:48.358Z,12.40
2022-09-21T06:23:15.905Z,18.88
2022-09-21T06:25:42.984Z,13.77
2022-09-21T06:28:12.470Z,18.42
2022-09-21T06:30:42.408Z,15.32
2022-09-21T06:33:10.009Z,15.55
2022-09-21T06:35:37.498Z,14.40
2022-09-21T06:38:08.744Z,16.17
2022-09-21T06:40:37.614Z,17.27
2022-09-21T06:43:06.302Z,13.68
2022-09-21T06:45:33.789Z,15.95
2022-09-21T06:48:00.961Z,14.07
2022-09-21T06:50:28.159Z,17.13
2022-09-21T06:52:55.849Z,19.05
2022-09-21T06:55:22.879Z,18.90
2022-09-21T06:57:51.728Z,16.10
2022-09-21T07:00:18.874Z,16.67
2022-09-21T07:02:46.237Z,17.02
2022-09-21T07:05:13.919Z,15.88
2022-09-21T07:07:41.133Z,18.70
2022-09-21T07:10:14.566Z,16.77
2022-09-21T07:12:43.787Z,17.95
2022-09-21T07:15:11.450Z,21.42
2022-09-21T07:17:39.940Z,17.15
2022-09-21T07:20:08.286Z,19.88
2022-09-21T07:22:36.129Z,18.20
2022-09-21T07:25:07.066Z,20.00
2022-09-21T07:27:34.790Z,22.52
2022-09-21T07:30:02.117Z,17.13
2022-09-21T07:32:31.027Z,17.50
2022-09-21T07:34:58.378Z,17.98
2022-09-21T07:37:26.593Z,19.83
2022-09-21T07:39:54.428Z,18.02
2022-09-21T07:42:22.952Z,17.67
2022-09-21T07:44:51.221Z,19.70
2022-09-21T07:47:18.877Z,17.90
2022-09-21T07:49:47.272Z,18.98
2022-09-21T07:52:15.582Z,18.92
2022-09-21T07:54:42.654Z,20.92
2022-09-21T07:57:27.997Z,20.52
2022-09-21T07:59:58.427Z,20.85
2022-09-21T08:02:25.997Z,23.35
2022-09-21T08:04:54.252Z,18.15
2022-09-21T08:07:21.343Z,23.50
2022-09-21T08:09:49.554Z,17.23
2022-09-21T08:12:20.875Z,20.08
2022-09-21T08:14:48.374Z,15.77
2022-09-21T08:17:16.042Z,16.60
2022-09-21T08:19:43.084Z,16.48
2022-09-21T08:22:11.742Z,17.73
2022-09-21T08:24:41.602Z,15.95
2022-09-21T08:27:08.668Z,12.88
2022-09-21T08:29:36.463Z,22.15
2022-09-21T08:32:03.978Z,14.85
2022-09-21T08:34:31.042Z,14.70
2022-09-21T08:36:58.134Z,14.90
2022-09-21T08:39:25.310Z,12.80
2022-09-21T08:41:52.253Z,15.93
2022-09-21T08:44:41.028Z,14.68
2022-09-21T08:47:14.067Z,13.20
2022-09-21T08:49:45.708Z,13.13
2022-09-21T08:52:16.981Z,11.60
2022-09-21T08:54:56.073Z,14.20
2022-09-21T08:57:30.499Z,12.15
2022-09-21T08:59:59.186Z,13.95
2022-09-21T09:02:47.994Z,12.57
2022-09-21T09:05:34.211Z,12.07
2022-09-21T09:08:35.721Z,10.77
2022-09-21T09:11:27.137Z,10.32
2022-09-21T09:14:21.168Z,10.23
2022-09-21T09:17:04.886Z,11.93
2022-09-21T09:20:09.767Z,8.63
2022-09-21T09:23:14.212Z,7.88
2022-09-21T09:25:43.232Z,8.47
2022-09-21T09:28:38.600Z,9.38
2022-09-21T09:31:11.502Z,9.27
2022-09-21T09:34:00.251Z,10.38
2022-09-21T09:36:56.779Z,9.60
2022-09-21T09:39:20.872Z,12.40
2022-09-21T09:42:22.125Z,8.55
2022-09-21T09:45:03.083Z,8.30
2022-09-21T09:48:16.923Z,7.35
2022-09-21T09:50:44.349Z,7.72
2022-09-21T09:53:13.178Z,9.40
2022-09-21T09:55:49.874Z,6.43
2022-09-21T09:58:30.554Z,9.63
2022-09-21T10:00:58.977Z,4.97
2022-09-21T10:03:27.922Z,5.65
2022-09-21T10:05:55.535Z,9.23
2022-09-21T10:08:46.574Z,7.13
2022-09-21T10:11:17.466Z,7.38
2022-09-21T10:13:47.511Z,5.68
2022-09-21T10:16:24.514Z,8.10
2022-09-21T10:18:56.503Z,6.68
2022-09-21T10:21:39.260Z,8.25
2022-09-21T10:24:28.616Z,8.45
2022-09-21T10:27:03.496Z,7.63
2022-09-21T10:29:38.421Z,7.22
2022-09-21T10:32:14.849Z,7.15
2022-09-21T10:35:05.259Z,8.57
2022-09-21T10:37:35.813Z,5.72
2022-09-21T10:40:04.331Z,8.43
2022-09-21T10:42:36.491Z,8.15
2022-09-21T10:45:18.175Z,6.03
2022-09-21T10:48:07.295Z,6.22
2022-09-21T10:50:38.890Z,7.50
2022-09-21T10:53:29.305Z,5.00
2022-09-21T10:56:19.005Z,5.00
2022-09-21T10:59:37.628Z,4.95
2022-09-21T11:02:31.353Z,6.75
2022-09-21T11:05:29.811Z,6.63
2022-09-21T11:08:06.463Z,4.80
2022-09-21T11:11:03.793Z,5.53
2022-09-21T11:13:35.704Z,5.78
2022-09-21T11:16:26.145Z,4.55
2022-09-21T11:19:10.144Z,5.38
2022-09-21T11:21:50.148Z,5.65
2022-09-21T11:24:46.558Z,4.53
2022-09-21T11:27:36.098Z,7.43
2022-09-21T11:30:10.926Z,3.95
2022-09-21T11:32:59.503Z,5.43
2022-09-21T11:35:45.375Z,5.45
2022-09-21T11:38:41.238Z,3.33
2022-09-21T11:41:24.636Z,2.60
2022-09-21T11:44:19.273Z,5.30
2022-09-21T11:46:46.408Z,4.47
2022-09-21T11:49:28.584Z,3.88
2022-09-21T11:52:21.769Z,7.53
2022-09-21T11:54:54.667Z,4.75
2022-09-21T11:57:45.642Z,4.13
2022-09-21T12:00:20.391Z,2.63
2022-09-21T12:03:06.276Z,2.88
2022-09-21T12:05:42.918Z,3.28
2022-09-21T12:08:12.870Z,4.03
2022-09-21T12:11:17.426Z,3.08
2022-09-21T12:13:52.024Z,3.22
2022-09-21T12:16:32.856Z,2.67
2022-09-21T12:19:24.840Z,3.03
2022-09-21T12:22:00.641Z,4.82
2022-09-21T12:24:43.148Z,4.90
2022-09-21T12:27:31.909Z,5.00
2022-09-21T12:30:13.014Z,2.17
2022-09-21T12:32:50.337Z,2.83
2022-09-21T12:35:44.937Z,7.05
2022-09-21T12:38:36.567Z,2.65
2022-09-21T12:41:26.803Z,4.07
2022-09-21T12:44:33.818Z,3.22
2022-09-21T12:47:11.986Z,2.30
2022-09-21T12:49:47.505Z,3.53
2022-09-21T12:52:25.467Z,5.32
2022-09-21T12:55:18.817Z,3.88
2022-09-21T12:58:14.458Z,4.22
2022-09-21T13:01:27.667Z,1.90
2022-09-21T13:04:09.876Z,4.43
2022-09-21T13:06:52.970Z,2.30
2022-09-21T13:09:22.482Z,3.90
2022-09-21T13:12:06.454Z,3.15
2022-09-21T13:14:36.446Z,4.18
2022-09-21T13:17:05.818Z,3.03
2022-09-21T13:19:35.867Z,2.55
2022-09-21T13:22:26.128Z,4.70
2022-09-21T13:25:18.497Z,3.75
2022-09-21T13:28:09.148Z,7.57
2022-09-21T13:30:45.040Z,5.70
2022-09-21T13:33:21.553Z,2.45
2022-09-21T13:36:00.569Z,5.05
2022-09-21T13:38:46.033Z,2.30
2022-09-21T13:41:19.464Z,5.13
2022-09-21T13:44:04.357Z,4.20
2022-09-21T13:46:35.327Z,2.75
2022-09-21T13:49:15.648Z,4.13
2022-09-21T13:51:51.908Z,4.47
2022-09-21T13:54:22.777Z,2.17
2022-09-21T13:57:09.347Z,2.33
2022-09-21T13:59:40.699Z,3.95
2022-09-21T14:02:35.840Z,2.45
2022-09-21T14:05:09.278Z,2.88
2022-09-21T14:10:10.181Z,2.50
2022-09-21T14:12:45.619Z,5.15
2022-09-21T14:15:19.322Z,4.75
2022-09-21T14:18:15.878Z,3.42
2022-09-21T14:21:08.409Z,7.30
2022-09-21T14:23:37.485Z,6.75
2022-09-21T14:26:33.068Z,3.88
2022-09-21T14:29:08.553Z,2.85
2022-09-21T14:31:39.201Z,2.80
2022-09-21T14:34:12.979Z,2.45
2022-09-21T14:36:45.917Z,4.68
2022-09-21T14:39:42.193Z,3.40
2022-09-21T14:42:20.188Z,3.33
2022-09-21T14:44:51.926Z,4.03
2022-09-21T14:47:25.534Z,4.50
2022-09-21T14:50:31.113Z,2.20
2022-09-21T14:53:29.890Z,2.40
2022-09-21T14:56:24.743Z,3.20
2022-09-21T14:59:03.895Z,2.20
2022-09-21T15:01:36.771Z,2.85
2022-09-21T15:04:03.845Z,5.95
2022-09-21T15:07:03.037Z,6.53
2022-09-21T15:10:10.688Z,5.15
2022-09-21T15:13:21.939Z,4.85
2022-09-21T15:16:07.385Z,5.85
2022-09-21T15:18:41.499Z,4.07
2022-09-21T15:23:54.312Z,3.10
2022-09-21T15:26:29.961Z,4.78
2022-09-21T15:29:15.446Z,3.28
2022-09-21T15:31:42.981Z,2.75
2022-09-21T15:34:13.710Z,4.40
2022-09-21T15:36:42.830Z,3.67
2022-09-21T15:39:30.714Z,3.10
2022-09-21T15:42:10.097Z,3.53
2022-09-21T15:44:39.533Z,4.80
2022-09-21T15:47:12.667Z,2.72
2022-09-21T15:49:40.932Z,5.80
2022-09-21T15:52:24.270Z,3.35
2022-09-21T15:55:01.355Z,5.22
2022-09-21T15:57:39.735Z,4.53
2022-09-21T16:00:36.931Z,4.18
2022-09-21T16:03:22.575Z,6.22
2022-09-21T16:05:52.832Z,3.30
2022-09-21T16:08:36.218Z,3.05
2022-09-21T16:11:17.070Z,3.05
2022-09-21T16:14:03.775Z,4.25
2022-09-21T16:16:31.147Z,2.55
2022-09-21T16:19:01.440Z,2.13
2022-09-21T16:21:34.214Z,2.58
2022-09-21T16:24:26.596Z,3.40
2022-09-21T16:27:02.865Z,1.77
2022-09-21T16:29:43.196Z,2.65
2022-09-21T16:32:21.523Z,1.67
2022-09-21T16:34:51.825Z,5.20
2022-09-21T16:37:24.576Z,2.42
2022-09-21T16:39:56.063Z,6.22
2022-09-21T16:42:27.218Z,5.47
2022-09-21T16:44:55.442Z,5.60
2022-09-21T16:47:27.683Z,4.10
2022-09-21T16:50:02.296Z,2.95
2022-09-21T16:52:30.686Z,4.85
2022-09-21T16:54:58.825Z,4.55
2022-09-21T16:57:26.601Z,4.45
2022-09-21T16:59:53.806Z,3.95
2022-09-21T17:02:20.918Z,4.63
2022-09-21T17:04:51.126Z,6.95
2022-09-21T17:07:20.056Z,7.47
2022-09-21T17:09:47.999Z,11.15
2022-09-21T17:12:17.856Z,10.20
2022-09-21T17:14:46.932Z,12.55
2022-09-21T17:17:22.138Z,15.32
2022-09-21T17:19:50.808Z,11.88
2022-09-21T17:22:18.895Z,10.85
2022-09-21T17:24:52.274Z,9.75
2022-09-21T17:27:22.768Z,8.05
2022-09-21T17:29:50.664Z,6.78
2022-09-21T17:32:22.909Z,5.65
2022-09-21T17:35:18.984Z,5.93
2022-09-21T17:37:46.183Z,5.85
2022-09-21T17:40:14.410Z,5.38
2022-09-21T17:42:46.550Z,3.85
2022-09-21T17:45:19.752Z,6.25
2022-09-21T17:47:46.989Z,4.93
2022-09-21T17:50:14.007Z,5.22
2022-09-21T17:53:01.079Z,5.68
2022-09-21T17:55:28.784Z,5.38
2022-09-21T17:58:05.846Z,6.95
2022-09-21T18:00:50.600Z,9.20
2022-09-21T18:03:26.666Z,9.80
2022-09-21T18:06:01.570Z,11.10
2022-09-21T18:08:30.610Z,10.90
2022-09-21T18:11:36.528Z,8.48
2022-09-21T18:14:15.100Z,8.90
2022-09-21T18:17:13.177Z,5.22
2022-09-21T18:19:52.181Z,10.63
2022-09-21T18:22:29.306Z,8.80
2022-09-21T18:24:58.253Z,7.05
2022-09-21T18:27:25.612Z,7.40
2022-09-21T18:29:53.081Z,8.15
2022-09-21T18:32:50.000Z,10.23
2022-09-21T18:35:59.013Z,6.63
2022-09-21T18:38:31.154Z,6.93
2022-09-21T18:41:17.961Z,11.13
2022-09-21T18:44:09.121Z,8.23
2022-09-21T18:46:48.992Z,5.13
2022-09-21T18:49:43.446Z,7.38
2022-09-21T18:52:49.978Z,8.40
2022-09-21T18:55:29.397Z,11.75
2022-09-21T18:57:58.131Z,10.65
2022-09-21T19:00:31.909Z,8.38
2022-09-21T19:03:16.541Z,7.07
2022-09-21T19:06:10.453Z,5.05
2022-09-21T19:08:37.713Z,7.85
2022-09-21T19:11:43.583Z,5.03
2022-09-21T19:14:35.440Z,8.07
2022-09-21T19:17:28.585Z,5.97
2022-09-21T19:19:58.405Z,5.60
2022-09-21T19:22:53.726Z,5.43
2022-09-21T19:25:25.057Z,8.35
2022-09-21T19:27:54.622Z,5.95
2022-09-21T19:30:21.893Z,6.32
2022-09-21T19:32:53.180Z,5.75
2022-09-21T19:35:23.521Z,7.15
2022-09-21T19:37:52.830Z,7.07
2022-09-21T19:40:24.101Z,5.35
2022-09-21T19:43:20.115Z,6.22
2022-09-21T19:46:12.546Z,6.28
2022-09-21T19:48:44.307Z,5.72
2022-09-21T19:51:24.832Z,8.43
2022-09-21T19:54:15.791Z,6.75
2022-09-21T19:57:06.719Z,5.35
2022-09-21T19:59:43.571Z,7.20
2022-09-21T20:02:28.758Z,6.07
2022-09-21T20:04:58.515Z,5.38
2022-09-21T20:07:25.587Z,8.95
2022-09-21T20:10:11.970Z,5.32
2022-09-21T20:12:59.612Z,9.10
2022-09-21T20:15:52.153Z,8.85
2022-09-21T20:18:24.806Z,11.50
2022-09-21T20:20:52.010Z,8.27
2022-09-21T20:23:19.421Z,9.15
2022-09-21T20:25:49.463Z,5.70
2022-09-21T20:28:17.632Z,10.48
2022-09-21T20:30:45.123Z,6.93
2022-09-21T20:33:15.149Z,6.55
2022-09-21T20:35:43.109Z,7.22
2022-09-21T20:38:11.098Z,5.93
2022-09-21T20:40:40.063Z,5.20
2022-09-21T20:43:08.464Z,7.25
2022-09-21T20:45:35.741Z,6.90
2022-09-21T20:48:15.861Z,5.57
2022-09-21T20:50:44.628Z,7.65
2022-09-21T20:53:12.691Z,6.28
2022-09-21T20:55:41.205Z,7.93
2022-09-21T20:58:12.214Z,12.57
2022-09-21T21:00:39.741Z,15.07
2022-09-21T21:03:06.837Z,15.38
2022-09-21T21:05:33.904Z,15.55
2022-09-21T21:08:01.357Z,14.32
2022-09-21T21:10:28.413Z,12.77
2022-09-21T21:12:58.226Z,10.80
2022-09-21T21:15:25.621Z,11.45
2022-09-21T21:17:52.741Z,13.20
2022-09-21T21:20:19.996Z,10.77
2022-09-21T21:22:50.620Z,11.32
2022-09-21T21:25:18.336Z,12.18
2022-09-21T21:27:45.397Z,10.32
2022-09-21T21:30:13.025Z,10.98
2022-09-21T21:32:40.117Z,11.52
2022-09-21T21:35:07.998Z,10.73
2022-09-21T21:37:35.224Z,9.88
2022-09-21T21:40:03.378Z,13.98
2022-09-21T21:42:30.554Z,11.80
2022-09-21T21:44:57.622Z,10.95
2022-09-21T21:47:41.088Z,11.25
2022-09-21T21:50:10.357Z,13.90
2022-09-21T21:52:37.831Z,12.10
2022-09-21T21:55:06.005Z,13.55
2022-09-21T21:57:34.043Z,8.32
2022-09-21T22:00:01.315Z,8.27
2022-09-21T22:02:29.672Z,9.63
2022-09-21T22:04:56.820Z,10.80
2022-09-21T22:07:24.057Z,9.00
2022-09-21T22:09:51.119Z,9.35
2022-09-21T22:12:18.175Z,7.90
2022-09-21T22:14:46.522Z,8.23
2022-09-21T22:17:14.648Z,8.70
2022-09-21T22:19:42.584Z,12.02
2022-09-21T22:22:09.610Z,9.75
2022-09-21T22:24:36.643Z,15.02
2022-09-21T22:27:04.145Z,14.23
2022-09-21T22:29:31.230Z,14.65
2022-09-21T22:31:58.477Z,14.90
2022-09-21T22:34:25.648Z,9.95
2022-09-21T22:36:52.682Z,7.65
2022-09-21T22:39:20.062Z,11.82
2022-09-21T22:41:47.213Z,8.73
2022-09-21T22:44:14.351Z,12.10
2022-09-21T22:46:41.438Z,11.75
2022-09-21T22:49:08.475Z,8.73
2022-09-21T22:51:36.233Z,9.90
2022-09-21T22:54:03.340Z,6.90
2022-09-21T22:56:32.305Z,8.45
2022-09-21T22:59:02.409Z,9.93
2022-09-21T23:01:40.294Z,7.10
2022-09-21T23:04:09.859Z,7.90
2022-09-21T23:06:39.476Z,8.27
2022-09-21T23:09:15.056Z,7.43
2022-09-21T23:11:44.143Z,9.57
2022-09-21T23:14:12.589Z,11.10
2022-09-21T23:16:39.782Z,8.25
2022-09-21T23:19:15.590Z,11.75
2022-09-21T23:21:51.633Z,9.85
2022-09-21T23:24:19.866Z,13.23
2022-09-21T23:26:47.929Z,13.43
2022-09-21T23:29:16.119Z,11.77
2022-09-21T23:31:45.781Z,11.60
2022-09-21T23:34:14.194Z,13.23
2022-09-21T23:36:42.194Z,16.02
2022-09-21T23:39:11.894Z,14.07
2022-09-21T23:41:39.207Z,12.43
2022-09-21T23:44:06.940Z,10.95
2022-09-21T23:46:37.345Z,17.75
2022-09-21T23:49:04.935Z,12.90
2022-09-21T23:51:32.237Z,11.95
2022-09-21T23:53:59.880Z,13.35
2022-09-21T23:56:28.355Z,13.95
2022-09-21T23:58:55.556Z,14.65
